Terminal Aerodrome Forecast
Issued by NWS Tuscon, AZ

Home | Current Version | Previous Version | Text Only | Print | Product List | Glossary On
Versions: 1 2 3 4 5 6 7 8 9 10 11 12 13
000
FTUS45 KTWC 212300
TAFTUS
TAF
KTUS 212323Z 2200/2224 35005KT P6SM SCT250
     FM220500 14008KT P6SM FEW250
     FM222100 04007KT P6SM FEW100=

USA.gov is the U.S. government's official web portal to all federal, state and local government web resources and services.